sensor_id;sensor_type;location;lat;lon;timestamp;P1;durP1;ratioP1;P2;durP2;ratioP2
58643;SDS011;44411;49.994;8.660;2023-03-23T00:00:07;5.07;;;1.83;;
58643;SDS011;44411;49.994;8.660;2023-03-23T00:02:33;3.00;;;1.20;;
58643;SDS011;44411;49.994;8.660;2023-03-23T00:05:01;4.20;;;1.33;;
58643;SDS011;44411;49.994;8.660;2023-03-23T00:07:28;2.33;;;1.33;;
58643;SDS011;44411;49.994;8.660;2023-03-23T00:09:53;5.70;;;1.60;;
58643;SDS011;44411;49.994;8.660;2023-03-23T00:12:20;6.18;;;1.77;;
58643;SDS011;44411;49.994;8.660;2023-03-23T00:14:45;3.55;;;1.48;;
58643;SDS011;44411;49.994;8.660;2023-03-23T00:17:10;4.00;;;1.50;;
58643;SDS011;44411;49.994;8.660;2023-03-23T00:19:39;3.80;;;2.08;;
58643;SDS011;44411;49.994;8.660;2023-03-23T00:22:13;2.95;;;1.80;;
58643;SDS011;44411;49.994;8.660;2023-03-23T00:24:39;3.85;;;1.70;;
58643;SDS011;44411;49.994;8.660;2023-03-23T00:27:04;4.97;;;1.40;;
58643;SDS011;44411;49.994;8.660;2023-03-23T00:29:30;5.93;;;1.48;;
58643;SDS011;44411;49.994;8.660;2023-03-23T00:31:57;5.68;;;1.40;;
58643;SDS011;44411;49.994;8.660;2023-03-23T00:34:23;4.45;;;1.70;;
58643;SDS011;44411;49.994;8.660;2023-03-23T00:36:53;3.10;;;1.25;;
58643;SDS011;44411;49.994;8.660;2023-03-23T00:39:21;4.30;;;1.60;;
58643;SDS011;44411;49.994;8.660;2023-03-23T00:41:49;3.55;;;1.50;;
58643;SDS011;44411;49.994;8.660;2023-03-23T00:44:14;2.67;;;1.45;;
58643;SDS011;44411;49.994;8.660;2023-03-23T00:46:42;3.95;;;1.70;;
58643;SDS011;44411;49.994;8.660;2023-03-23T00:49:12;3.58;;;1.60;;
58643;SDS011;44411;49.994;8.660;2023-03-23T00:51:38;3.10;;;1.50;;
58643;SDS011;44411;49.994;8.660;2023-03-23T00:54:04;4.05;;;1.58;;
58643;SDS011;44411;49.994;8.660;2023-03-23T00:56:29;2.40;;;1.52;;
58643;SDS011;44411;49.994;8.660;2023-03-23T00:58:54;7.53;;;1.70;;
58643;SDS011;44411;49.994;8.660;2023-03-23T01:01:20;4.23;;;1.70;;
58643;SDS011;44411;49.994;8.660;2023-03-23T01:03:45;3.30;;;1.77;;
58643;SDS011;44411;49.994;8.660;2023-03-23T01:06:10;2.92;;;1.70;;
58643;SDS011;44411;49.994;8.660;2023-03-23T01:08:39;3.35;;;1.75;;
58643;SDS011;44411;49.994;8.660;2023-03-23T01:11:10;4.20;;;1.77;;
58643;SDS011;44411;49.994;8.660;2023-03-23T01:13:37;3.22;;;1.70;;
58643;SDS011;44411;49.994;8.660;2023-03-23T01:16:02;3.27;;;1.80;;
58643;SDS011;44411;49.994;8.660;2023-03-23T01:18:27;5.67;;;1.90;;
58643;SDS011;44411;49.994;8.660;2023-03-23T01:20:53;4.75;;;1.95;;
58643;SDS011;44411;49.994;8.660;2023-03-23T01:23:18;3.17;;;1.70;;
58643;SDS011;44411;49.994;8.660;2023-03-23T01:25:43;3.50;;;1.60;;
58643;SDS011;44411;49.994;8.660;2023-03-23T01:28:10;4.63;;;1.90;;
58643;SDS011;44411;49.994;8.660;2023-03-23T01:30:36;5.63;;;1.58;;
58643;SDS011;44411;49.994;8.660;2023-03-23T01:33:01;3.03;;;1.80;;
58643;SDS011;44411;49.994;8.660;2023-03-23T01:35:26;3.47;;;1.77;;
58643;SDS011;44411;49.994;8.660;2023-03-23T01:37:52;3.97;;;1.80;;
58643;SDS011;44411;49.994;8.660;2023-03-23T01:40:17;3.00;;;1.30;;
58643;SDS011;44411;49.994;8.660;2023-03-23T01:42:42;2.70;;;1.57;;
58643;SDS011;44411;49.994;8.660;2023-03-23T01:50:29;7.07;;;1.90;;
58643;SDS011;44411;49.994;8.660;2023-03-23T01:52:57;4.18;;;1.73;;
58643;SDS011;44411;49.994;8.660;2023-03-23T01:55:23;6.07;;;1.80;;
58643;SDS011;44411;49.994;8.660;2023-03-23T01:57:50;4.20;;;1.90;;
58643;SDS011;44411;49.994;8.660;2023-03-23T02:00:15;5.88;;;2.03;;
58643;SDS011;44411;49.994;8.660;2023-03-23T02:02:45;2.47;;;1.52;;
58643;SDS011;44411;49.994;8.660;2023-03-23T02:05:16;5.45;;;1.83;;
58643;SDS011;44411;49.994;8.660;2023-03-23T02:07:44;3.90;;;1.90;;
58643;SDS011;44411;49.994;8.660;2023-03-23T02:10:10;4.75;;;1.83;;
58643;SDS011;44411;49.994;8.660;2023-03-23T02:12:35;8.17;;;2.13;;
58643;SDS011;44411;49.994;8.660;2023-03-23T02:15:01;4.03;;;1.85;;
58643;SDS011;44411;49.994;8.660;2023-03-23T02:17:33;3.17;;;1.95;;
58643;SDS011;44411;49.994;8.660;2023-03-23T02:35:12;4.57;;;1.95;;
58643;SDS011;44411;49.994;8.660;2023-03-23T02:37:50;5.23;;;1.97;;
58643;SDS011;44411;49.994;8.660;2023-03-23T02:40:27;4.45;;;1.90;;
58643;SDS011;44411;49.994;8.660;2023-03-23T02:42:55;6.72;;;1.90;;
58643;SDS011;44411;49.994;8.660;2023-03-23T02:45:22;5.47;;;2.00;;
58643;SDS011;44411;49.994;8.660;2023-03-23T02:47:49;4.07;;;2.00;;
58643;SDS011;44411;49.994;8.660;2023-03-23T06:01:28;3.83;;;2.00;;
58643;SDS011;44411;49.994;8.660;2023-03-23T06:03:54;5.45;;;2.13;;
58643;SDS011;44411;49.994;8.660;2023-03-23T06:06:23;3.42;;;1.90;;
58643;SDS011;44411;49.994;8.660;2023-03-23T06:08:49;3.78;;;2.15;;
58643;SDS011;44411;49.994;8.660;2023-03-23T06:11:15;4.72;;;2.28;;
58643;SDS011;44411;49.994;8.660;2023-03-23T06:13:40;5.38;;;2.42;;
58643;SDS011;44411;49.994;8.660;2023-03-23T06:16:06;3.97;;;1.80;;
58643;SDS011;44411;49.994;8.660;2023-03-23T06:18:32;3.97;;;2.30;;
58643;SDS011;44411;49.994;8.660;2023-03-23T06:20:59;4.45;;;2.40;;
58643;SDS011;44411;49.994;8.660;2023-03-23T06:23:24;5.00;;;2.35;;
58643;SDS011;44411;49.994;8.660;2023-03-23T06:25:49;3.80;;;2.08;;
58643;SDS011;44411;49.994;8.660;2023-03-23T06:28:17;3.53;;;2.20;;
58643;SDS011;44411;49.994;8.660;2023-03-23T06:30:43;4.10;;;2.50;;
58643;SDS011;44411;49.994;8.660;2023-03-23T06:33:08;4.07;;;2.00;;
58643;SDS011;44411;49.994;8.660;2023-03-23T06:35:34;3.95;;;1.98;;
58643;SDS011;44411;49.994;8.660;2023-03-23T06:37:59;5.18;;;2.45;;
58643;SDS011;44411;49.994;8.660;2023-03-23T06:40:27;6.85;;;2.25;;
58643;SDS011;44411;49.994;8.660;2023-03-23T06:42:53;4.07;;;2.20;;
58643;SDS011;44411;49.994;8.660;2023-03-23T06:45:18;4.72;;;2.53;;
58643;SDS011;44411;49.994;8.660;2023-03-23T06:47:44;3.95;;;1.98;;
58643;SDS011;44411;49.994;8.660;2023-03-23T06:50:10;4.20;;;2.33;;
58643;SDS011;44411;49.994;8.660;2023-03-23T06:52:35;3.90;;;1.90;;
58643;SDS011;44411;49.994;8.660;2023-03-23T06:55:00;6.03;;;2.10;;
58643;SDS011;44411;49.994;8.660;2023-03-23T06:57:26;3.70;;;2.10;;
58643;SDS011;44411;49.994;8.660;2023-03-23T06:59:51;5.33;;;2.30;;
58643;SDS011;44411;49.994;8.660;2023-03-23T07:02:16;4.33;;;2.03;;
58643;SDS011;44411;49.994;8.660;2023-03-23T07:04:42;5.55;;;1.90;;
58643;SDS011;44411;49.994;8.660;2023-03-23T07:07:08;3.03;;;1.73;;
58643;SDS011;44411;49.994;8.660;2023-03-23T07:09:33;3.92;;;1.90;;
58643;SDS011;44411;49.994;8.660;2023-03-23T07:11:59;3.83;;;1.65;;
58643;SDS011;44411;49.994;8.660;2023-03-23T07:14:24;5.65;;;1.98;;
58643;SDS011;44411;49.994;8.660;2023-03-23T07:16:49;3.65;;;2.13;;
58643;SDS011;44411;49.994;8.660;2023-03-23T07:19:15;4.78;;;2.20;;
58643;SDS011;44411;49.994;8.660;2023-03-23T07:21:40;4.43;;;1.88;;
58643;SDS011;44411;49.994;8.660;2023-03-23T07:24:06;4.20;;;2.28;;
58643;SDS011;44411;49.994;8.660;2023-03-23T07:26:31;3.42;;;1.95;;
58643;SDS011;44411;49.994;8.660;2023-03-23T07:28:56;3.53;;;1.87;;
58643;SDS011;44411;49.994;8.660;2023-03-23T07:31:22;4.22;;;1.70;;
58643;SDS011;44411;49.994;8.660;2023-03-23T07:33:47;4.50;;;1.88;;
58643;SDS011;44411;49.994;8.660;2023-03-23T07:36:13;4.75;;;2.13;;
58643;SDS011;44411;49.994;8.660;2023-03-23T07:38:38;4.07;;;1.80;;
58643;SDS011;44411;49.994;8.660;2023-03-23T07:41:03;5.47;;;2.27;;
58643;SDS011;44411;49.994;8.660;2023-03-23T07:43:28;4.05;;;1.90;;
58643;SDS011;44411;49.994;8.660;2023-03-23T07:45:54;5.03;;;2.03;;
58643;SDS011;44411;49.994;8.660;2023-03-23T07:48:19;3.40;;;1.92;;
58643;SDS011;44411;49.994;8.660;2023-03-23T07:50:45;3.17;;;1.85;;
58643;SDS011;44411;49.994;8.660;2023-03-23T07:55:50;4.75;;;1.90;;
58643;SDS011;44411;49.994;8.660;2023-03-23T07:58:22;4.75;;;2.10;;
58643;SDS011;44411;49.994;8.660;2023-03-23T08:00:48;3.75;;;2.10;;
58643;SDS011;44411;49.994;8.660;2023-03-23T08:03:17;6.07;;;2.10;;
58643;SDS011;44411;49.994;8.660;2023-03-23T08:08:15;3.63;;;2.15;;
58643;SDS011;44411;49.994;8.660;2023-03-23T08:10:40;4.73;;;2.40;;
58643;SDS011;44411;49.994;8.660;2023-03-23T08:13:05;3.75;;;1.98;;
58643;SDS011;44411;49.994;8.660;2023-03-23T08:15:31;8.80;;;2.30;;
58643;SDS011;44411;49.994;8.660;2023-03-23T08:17:57;4.10;;;1.87;;
58643;SDS011;44411;49.994;8.660;2023-03-23T08:20:23;3.28;;;1.85;;
58643;SDS011;44411;49.994;8.660;2023-03-23T08:22:53;5.55;;;2.17;;
58643;SDS011;44411;49.994;8.660;2023-03-23T08:25:20;5.03;;;1.92;;
58643;SDS011;44411;49.994;8.660;2023-03-23T08:27:45;5.00;;;2.00;;
58643;SDS011;44411;49.994;8.660;2023-03-23T08:30:11;5.40;;;2.33;;
58643;SDS011;44411;49.994;8.660;2023-03-23T08:32:37;4.10;;;2.22;;
58643;SDS011;44411;49.994;8.660;2023-03-23T08:35:03;4.75;;;1.90;;
58643;SDS011;44411;49.994;8.660;2023-03-23T08:37:28;5.85;;;2.15;;
58643;SDS011;44411;49.994;8.660;2023-03-23T08:39:54;4.05;;;2.10;;
58643;SDS011;44411;49.994;8.660;2023-03-23T08:42:20;4.57;;;1.88;;
58643;SDS011;44411;49.994;8.660;2023-03-23T08:44:45;3.67;;;2.13;;
58643;SDS011;44411;49.994;8.660;2023-03-23T08:47:10;4.65;;;2.00;;
58643;SDS011;44411;49.994;8.660;2023-03-23T08:49:35;5.00;;;2.50;;
58643;SDS011;44411;49.994;8.660;2023-03-23T08:52:01;4.60;;;2.27;;
58643;SDS011;44411;49.994;8.660;2023-03-23T08:54:26;4.75;;;2.60;;
58643;SDS011;44411;49.994;8.660;2023-03-23T08:56:52;4.07;;;2.10;;
58643;SDS011;44411;49.994;8.660;2023-03-23T08:59:17;3.17;;;2.00;;
58643;SDS011;44411;49.994;8.660;2023-03-23T09:01:42;5.53;;;2.25;;
58643;SDS011;44411;49.994;8.660;2023-03-23T09:04:08;6.50;;;2.03;;
58643;SDS011;44411;49.994;8.660;2023-03-23T09:06:34;6.80;;;2.35;;
58643;SDS011;44411;49.994;8.660;2023-03-23T09:09:00;5.60;;;2.20;;
58643;SDS011;44411;49.994;8.660;2023-03-23T09:11:26;3.33;;;2.15;;
58643;SDS011;44411;49.994;8.660;2023-03-23T09:13:51;4.40;;;1.83;;
58643;SDS011;44411;49.994;8.660;2023-03-23T09:16:17;3.70;;;2.00;;
58643;SDS011;44411;49.994;8.660;2023-03-23T09:18:42;4.40;;;2.33;;
58643;SDS011;44411;49.994;8.660;2023-03-23T09:21:07;4.17;;;1.80;;
58643;SDS011;44411;49.994;8.660;2023-03-23T09:23:34;4.65;;;1.80;;
58643;SDS011;44411;49.994;8.660;2023-03-23T09:25:59;4.40;;;2.25;;
58643;SDS011;44411;49.994;8.660;2023-03-23T09:28:25;4.20;;;2.20;;
58643;SDS011;44411;49.994;8.660;2023-03-23T09:30:50;4.20;;;2.00;;
58643;SDS011;44411;49.994;8.660;2023-03-23T09:33:16;4.22;;;1.80;;
58643;SDS011;44411;49.994;8.660;2023-03-23T09:35:41;4.07;;;2.20;;
58643;SDS011;44411;49.994;8.660;2023-03-23T09:38:07;3.00;;;1.75;;
58643;SDS011;44411;49.994;8.660;2023-03-23T09:45:36;6.30;;;2.20;;
58643;SDS011;44411;49.994;8.660;2023-03-23T09:50:29;4.70;;;1.67;;
58643;SDS011;44411;49.994;8.660;2023-03-23T09:53:17;6.95;;;1.98;;
58643;SDS011;44411;49.994;8.660;2023-03-23T09:55:44;3.50;;;1.58;;
58643;SDS011;44411;49.994;8.660;2023-03-23T10:00:43;4.82;;;2.05;;
58643;SDS011;44411;49.994;8.660;2023-03-23T10:03:14;3.42;;;1.80;;
58643;SDS011;44411;49.994;8.660;2023-03-23T10:08:16;4.65;;;1.90;;
58643;SDS011;44411;49.994;8.660;2023-03-23T10:15:50;3.55;;;1.60;;
58643;SDS011;44411;49.994;8.660;2023-03-23T10:20:59;3.97;;;1.90;;
58643;SDS011;44411;49.994;8.660;2023-03-23T10:23:40;2.95;;;1.77;;
58643;SDS011;44411;49.994;8.660;2023-03-23T10:28:50;5.97;;;2.08;;
58643;SDS011;44411;49.994;8.660;2023-03-23T10:31:23;4.00;;;1.93;;
58643;SDS011;44411;49.994;8.660;2023-03-23T10:33:50;3.95;;;1.80;;
58643;SDS011;44411;49.994;8.660;2023-03-23T10:36:19;2.90;;;1.45;;
58643;SDS011;44411;49.994;8.660;2023-03-23T10:38:49;3.92;;;1.85;;
58643;SDS011;44411;49.994;8.660;2023-03-23T10:41:17;5.50;;;1.80;;
58643;SDS011;44411;49.994;8.660;2023-03-23T10:43:43;4.72;;;1.92;;
58643;SDS011;44411;49.994;8.660;2023-03-23T10:48:40;2.53;;;1.55;;
58643;SDS011;44411;49.994;8.660;2023-03-23T10:51:06;3.53;;;1.70;;
58643;SDS011;44411;49.994;8.660;2023-03-23T10:53:36;3.28;;;1.45;;
58643;SDS011;44411;49.994;8.660;2023-03-23T10:56:02;3.38;;;1.80;;
58643;SDS011;44411;49.994;8.660;2023-03-23T10:58:29;3.00;;;1.60;;
58643;SDS011;44411;49.994;8.660;2023-03-23T11:00:55;3.10;;;1.65;;
58643;SDS011;44411;49.994;8.660;2023-03-23T11:03:22;2.35;;;1.45;;
58643;SDS011;44411;49.994;8.660;2023-03-23T11:08:58;3.10;;;1.48;;
58643;SDS011;44411;49.994;8.660;2023-03-23T11:11:11;4.35;;;1.50;;
58643;SDS011;44411;49.994;8.660;2023-03-23T11:13:39;3.53;;;1.20;;
58643;SDS011;44411;49.994;8.660;2023-03-23T11:16:05;3.85;;;1.67;;
58643;SDS011;44411;49.994;8.660;2023-03-23T11:20:59;3.42;;;1.50;;
58643;SDS011;44411;49.994;8.660;2023-03-23T11:23:28;2.05;;;1.10;;
58643;SDS011;44411;49.994;8.660;2023-03-23T11:26:13;2.72;;;1.38;;
58643;SDS011;44411;49.994;8.660;2023-03-23T11:28:45;4.18;;;1.70;;
58643;SDS011;44411;49.994;8.660;2023-03-23T11:31:11;6.38;;;1.80;;
58643;SDS011;44411;49.994;8.660;2023-03-23T11:33:46;2.97;;;1.48;;
58643;SDS011;44411;49.994;8.660;2023-03-23T11:36:12;2.53;;;1.40;;
58643;SDS011;44411;49.994;8.660;2023-03-23T11:38:38;3.10;;;1.40;;
58643;SDS011;44411;49.994;8.660;2023-03-23T11:41:08;3.77;;;1.60;;
58643;SDS011;44411;49.994;8.660;2023-03-23T11:43:34;3.45;;;1.50;;
58643;SDS011;44411;49.994;8.660;2023-03-23T11:46:02;2.70;;;1.38;;
58643;SDS011;44411;49.994;8.660;2023-03-23T11:48:33;2.57;;;1.47;;
58643;SDS011;44411;49.994;8.660;2023-03-23T11:58:32;3.25;;;1.55;;
58643;SDS011;44411;49.994;8.660;2023-03-23T12:06:14;2.50;;;1.40;;
58643;SDS011;44411;49.994;8.660;2023-03-23T12:21:35;1.90;;;1.25;;
58643;SDS011;44411;49.994;8.660;2023-03-23T12:29:30;2.75;;;1.38;;
58643;SDS011;44411;49.994;8.660;2023-03-23T12:34:31;3.17;;;1.37;;
58643;SDS011;44411;49.994;8.660;2023-03-23T12:42:03;3.30;;;1.48;;
58643;SDS011;44411;49.994;8.660;2023-03-23T12:44:35;3.35;;;1.35;;
58643;SDS011;44411;49.994;8.660;2023-03-23T12:52:20;4.30;;;1.47;;
58643;SDS011;44411;49.994;8.660;2023-03-23T12:57:27;2.65;;;1.50;;
58643;SDS011;44411;49.994;8.660;2023-03-23T13:05:27;1.88;;;1.35;;
58643;SDS011;44411;49.994;8.660;2023-03-23T13:07:52;2.97;;;1.10;;
58643;SDS011;44411;49.994;8.660;2023-03-23T13:10:24;2.25;;;1.10;;
58643;SDS011;44411;49.994;8.660;2023-03-23T13:12:51;2.33;;;1.20;;
58643;SDS011;44411;49.994;8.660;2023-03-23T13:28:23;3.20;;;1.73;;
58643;SDS011;44411;49.994;8.660;2023-03-23T13:33:29;2.45;;;1.20;;
58643;SDS011;44411;49.994;8.660;2023-03-23T13:35:55;2.25;;;1.20;;
58643;SDS011;44411;49.994;8.660;2023-03-23T13:38:21;3.90;;;1.38;;
58643;SDS011;44411;49.994;8.660;2023-03-23T13:40:48;1.88;;;1.20;;
58643;SDS011;44411;49.994;8.660;2023-03-23T13:43:24;2.70;;;1.27;;
58643;SDS011;44411;49.994;8.660;2023-03-23T13:45:51;3.08;;;1.23;;
58643;SDS011;44411;49.994;8.660;2023-03-23T13:48:20;2.70;;;1.15;;
58643;SDS011;44411;49.994;8.660;2023-03-23T13:50:58;1.75;;;1.00;;
58643;SDS011;44411;49.994;8.660;2023-03-23T13:53:31;4.18;;;1.20;;
58643;SDS011;44411;49.994;8.660;2023-03-23T13:58:48;3.40;;;1.20;;
58643;SDS011;44411;49.994;8.660;2023-03-23T14:01:15;1.00;;;0.80;;
58643;SDS011;44411;49.994;8.660;2023-03-23T14:03:43;2.28;;;1.20;;
58643;SDS011;44411;49.994;8.660;2023-03-23T14:06:15;3.53;;;1.00;;
58643;SDS011;44411;49.994;8.660;2023-03-23T14:08:44;3.08;;;0.90;;
58643;SDS011;44411;49.994;8.660;2023-03-23T14:11:18;2.10;;;1.08;;
58643;SDS011;44411;49.994;8.660;2023-03-23T14:16:17;3.25;;;1.20;;
58643;SDS011;44411;49.994;8.660;2023-03-23T14:18:47;2.22;;;1.00;;
58643;SDS011;44411;49.994;8.660;2023-03-23T14:21:15;2.63;;;0.90;;
58643;SDS011;44411;49.994;8.660;2023-03-23T14:23:40;1.98;;;1.20;;
58643;SDS011;44411;49.994;8.660;2023-03-23T14:26:10;4.53;;;1.20;;
58643;SDS011;44411;49.994;8.660;2023-03-23T14:28:36;2.63;;;0.98;;
58643;SDS011;44411;49.994;8.660;2023-03-23T14:31:02;1.77;;;1.00;;
58643;SDS011;44411;49.994;8.660;2023-03-23T14:33:27;2.03;;;1.23;;
58643;SDS011;44411;49.994;8.660;2023-03-23T14:38:19;1.40;;;0.85;;
58643;SDS011;44411;49.994;8.660;2023-03-23T14:40:45;1.70;;;1.00;;
58643;SDS011;44411;49.994;8.660;2023-03-23T14:43:11;1.83;;;1.00;;
58643;SDS011;44411;49.994;8.660;2023-03-23T14:45:38;1.42;;;0.80;;
58643;SDS011;44411;49.994;8.660;2023-03-23T14:48:03;3.42;;;0.93;;
58643;SDS011;44411;49.994;8.660;2023-03-23T14:50:36;2.15;;;1.10;;
58643;SDS011;44411;49.994;8.660;2023-03-23T14:53:07;2.53;;;1.08;;
58643;SDS011;44411;49.994;8.660;2023-03-23T14:55:34;2.30;;;0.90;;
58643;SDS011;44411;49.994;8.660;2023-03-23T14:58:06;2.40;;;1.10;;
58643;SDS011;44411;49.994;8.660;2023-03-23T15:00:37;2.60;;;1.00;;
58643;SDS011;44411;49.994;8.660;2023-03-23T15:03:03;3.10;;;1.45;;
58643;SDS011;44411;49.994;8.660;2023-03-23T15:05:33;3.15;;;1.10;;
58643;SDS011;44411;49.994;8.660;2023-03-23T15:08:10;5.38;;;1.75;;
58643;SDS011;44411;49.994;8.660;2023-03-23T15:10:36;1.77;;;1.05;;
58643;SDS011;44411;49.994;8.660;2023-03-23T15:13:02;2.50;;;1.10;;
58643;SDS011;44411;49.994;8.660;2023-03-23T15:15:29;2.80;;;1.10;;
58643;SDS011;44411;49.994;8.660;2023-03-23T15:17:55;2.22;;;1.00;;
58643;SDS011;44411;49.994;8.660;2023-03-23T15:20:22;2.38;;;1.40;;
58643;SDS011;44411;49.994;8.660;2023-03-23T15:22:47;2.58;;;1.00;;
58643;SDS011;44411;49.994;8.660;2023-03-23T15:25:23;4.30;;;1.15;;
58643;SDS011;44411;49.994;8.660;2023-03-23T15:28:40;2.35;;;1.02;;
58643;SDS011;44411;49.994;8.660;2023-03-23T15:30:45;3.55;;;1.17;;
58643;SDS011;44411;49.994;8.660;2023-03-23T15:33:11;1.63;;;1.15;;
58643;SDS011;44411;49.994;8.660;2023-03-23T15:35:38;3.33;;;1.23;;
58643;SDS011;44411;49.994;8.660;2023-03-23T15:38:14;3.58;;;1.30;;
58643;SDS011;44411;49.994;8.660;2023-03-23T15:40:40;5.97;;;1.65;;
58643;SDS011;44411;49.994;8.660;2023-03-23T15:43:20;2.83;;;1.30;;
58643;SDS011;44411;49.994;8.660;2023-03-23T15:48:21;2.67;;;1.30;;
58643;SDS011;44411;49.994;8.660;2023-03-23T15:50:47;4.75;;;1.40;;
58643;SDS011;44411;49.994;8.660;2023-03-23T15:53:22;3.75;;;1.50;;
58643;SDS011;44411;49.994;8.660;2023-03-23T15:55:48;2.20;;;1.30;;
58643;SDS011;44411;49.994;8.660;2023-03-23T15:58:13;3.05;;;1.38;;
58643;SDS011;44411;49.994;8.660;2023-03-23T16:00:39;6.63;;;1.48;;
58643;SDS011;44411;49.994;8.660;2023-03-23T16:03:06;2.40;;;1.17;;
58643;SDS011;44411;49.994;8.660;2023-03-23T16:05:32;4.45;;;1.40;;
58643;SDS011;44411;49.994;8.660;2023-03-23T16:07:58;3.92;;;1.77;;
58643;SDS011;44411;49.994;8.660;2023-03-23T16:10:23;3.70;;;1.67;;
58643;SDS011;44411;49.994;8.660;2023-03-23T16:12:49;4.30;;;2.10;;
58643;SDS011;44411;49.994;8.660;2023-03-23T16:15:15;3.15;;;1.83;;
58643;SDS011;44411;49.994;8.660;2023-03-23T16:17:40;2.97;;;1.55;;
58643;SDS011;44411;49.994;8.660;2023-03-23T16:20:13;4.30;;;1.58;;
58643;SDS011;44411;49.994;8.660;2023-03-23T16:22:38;2.88;;;1.55;;
58643;SDS011;44411;49.994;8.660;2023-03-23T16:25:04;3.03;;;1.80;;
58643;SDS011;44411;49.994;8.660;2023-03-23T16:27:29;5.55;;;2.00;;
58643;SDS011;44411;49.994;8.660;2023-03-23T16:29:55;3.53;;;1.80;;
58643;SDS011;44411;49.994;8.660;2023-03-23T16:32:21;4.05;;;1.77;;
58643;SDS011;44411;49.994;8.660;2023-03-23T16:34:46;4.43;;;1.97;;
58643;SDS011;44411;49.994;8.660;2023-03-23T16:37:11;5.13;;;1.77;;
58643;SDS011;44411;49.994;8.660;2023-03-23T16:39:37;2.85;;;1.63;;
58643;SDS011;44411;49.994;8.660;2023-03-23T16:42:02;3.97;;;1.80;;
58643;SDS011;44411;49.994;8.660;2023-03-23T16:44:27;4.27;;;1.80;;
58643;SDS011;44411;49.994;8.660;2023-03-23T16:46:52;4.03;;;1.80;;
58643;SDS011;44411;49.994;8.660;2023-03-23T16:49:18;6.93;;;2.03;;
58643;SDS011;44411;49.994;8.660;2023-03-23T16:51:43;3.73;;;1.40;;
58643;SDS011;44411;49.994;8.660;2023-03-23T16:54:08;3.63;;;1.47;;
58643;SDS011;44411;49.994;8.660;2023-03-23T16:56:33;3.90;;;1.95;;
58643;SDS011;44411;49.994;8.660;2023-03-23T16:58:59;3.38;;;1.55;;
58643;SDS011;44411;49.994;8.660;2023-03-23T17:01:24;5.25;;;1.70;;
58643;SDS011;44411;49.994;8.660;2023-03-23T17:03:49;5.05;;;2.03;;
58643;SDS011;44411;49.994;8.660;2023-03-23T17:06:15;3.23;;;1.83;;
58643;SDS011;44411;49.994;8.660;2023-03-23T17:08:40;4.82;;;1.90;;
58643;SDS011;44411;49.994;8.660;2023-03-23T17:11:05;5.15;;;2.25;;
58643;SDS011;44411;49.994;8.660;2023-03-23T17:13:31;4.22;;;2.10;;
58643;SDS011;44411;49.994;8.660;2023-03-23T17:15:56;5.78;;;2.70;;
58643;SDS011;44411;49.994;8.660;2023-03-23T17:18:24;6.07;;;2.47;;
58643;SDS011;44411;49.994;8.660;2023-03-23T17:20:51;4.88;;;2.08;;
58643;SDS011;44411;49.994;8.660;2023-03-23T17:23:17;3.15;;;1.70;;
58643;SDS011;44411;49.994;8.660;2023-03-23T17:25:43;3.95;;;1.80;;
58643;SDS011;44411;49.994;8.660;2023-03-23T17:28:08;4.55;;;1.98;;
58643;SDS011;44411;49.994;8.660;2023-03-23T17:30:34;4.10;;;1.70;;
58643;SDS011;44411;49.994;8.660;2023-03-23T17:32:59;3.22;;;1.58;;
58643;SDS011;44411;49.994;8.660;2023-03-23T17:35:24;4.17;;;1.70;;
58643;SDS011;44411;49.994;8.660;2023-03-23T17:37:49;4.38;;;2.08;;
58643;SDS011;44411;49.994;8.660;2023-03-23T17:40:15;3.80;;;1.60;;
58643;SDS011;44411;49.994;8.660;2023-03-23T17:42:40;4.22;;;2.03;;
58643;SDS011;44411;49.994;8.660;2023-03-23T17:45:06;5.45;;;2.75;;
58643;SDS011;44411;49.994;8.660;2023-03-23T17:47:32;7.75;;;2.45;;
58643;SDS011;44411;49.994;8.660;2023-03-23T17:49:57;4.63;;;2.85;;
58643;SDS011;44411;49.994;8.660;2023-03-23T17:52:23;5.77;;;3.27;;
58643;SDS011;44411;49.994;8.660;2023-03-23T17:54:48;8.05;;;2.45;;
58643;SDS011;44411;49.994;8.660;2023-03-23T17:57:13;4.07;;;2.10;;
58643;SDS011;44411;49.994;8.660;2023-03-23T17:59:39;4.65;;;2.00;;
58643;SDS011;44411;49.994;8.660;2023-03-23T18:02:04;3.45;;;2.15;;
58643;SDS011;44411;49.994;8.660;2023-03-23T18:04:30;6.38;;;2.20;;
58643;SDS011;44411;49.994;8.660;2023-03-23T18:06:55;4.10;;;2.35;;
58643;SDS011;44411;49.994;8.660;2023-03-23T18:09:21;3.58;;;2.03;;
58643;SDS011;44411;49.994;8.660;2023-03-23T18:11:46;4.97;;;2.33;;
58643;SDS011;44411;49.994;8.660;2023-03-23T18:14:11;4.43;;;2.13;;
58643;SDS011;44411;49.994;8.660;2023-03-23T18:16:37;3.77;;;1.73;;
58643;SDS011;44411;49.994;8.660;2023-03-23T18:19:02;8.03;;;3.70;;
58643;SDS011;44411;49.994;8.660;2023-03-23T18:21:27;6.32;;;3.80;;
58643;SDS011;44411;49.994;8.660;2023-03-23T18:23:53;5.90;;;3.38;;
58643;SDS011;44411;49.994;8.660;2023-03-23T18:26:18;6.80;;;3.20;;
58643;SDS011;44411;49.994;8.660;2023-03-23T18:28:45;7.15;;;2.90;;
58643;SDS011;44411;49.994;8.660;2023-03-23T18:31:12;4.65;;;2.92;;
58643;SDS011;44411;49.994;8.660;2023-03-23T18:33:37;5.30;;;2.50;;
58643;SDS011;44411;49.994;8.660;2023-03-23T18:36:03;6.30;;;3.05;;
58643;SDS011;44411;49.994;8.660;2023-03-23T18:38:30;5.43;;;3.20;;
58643;SDS011;44411;49.994;8.660;2023-03-23T18:40:55;5.72;;;3.20;;
58643;SDS011;44411;49.994;8.660;2023-03-23T18:43:21;5.45;;;3.10;;
58643;SDS011;44411;49.994;8.660;2023-03-23T18:45:54;6.88;;;3.30;;
58643;SDS011;44411;49.994;8.660;2023-03-23T18:48:20;9.10;;;3.50;;
58643;SDS011;44411;49.994;8.660;2023-03-23T18:50:48;7.03;;;3.30;;
58643;SDS011;44411;49.994;8.660;2023-03-23T18:53:14;6.70;;;2.85;;
58643;SDS011;44411;49.994;8.660;2023-03-23T18:55:40;7.82;;;3.83;;
58643;SDS011;44411;49.994;8.660;2023-03-23T18:58:05;5.68;;;3.85;;
58643;SDS011;44411;49.994;8.660;2023-03-23T19:00:30;8.87;;;4.10;;
58643;SDS011;44411;49.994;8.660;2023-03-23T19:02:57;9.75;;;4.88;;
58643;SDS011;44411;49.994;8.660;2023-03-23T19:05:23;9.35;;;4.63;;
58643;SDS011;44411;49.994;8.660;2023-03-23T19:07:48;7.20;;;3.97;;
58643;SDS011;44411;49.994;8.660;2023-03-23T19:10:13;5.30;;;3.65;;
58643;SDS011;44411;49.994;8.660;2023-03-23T19:12:40;7.38;;;3.20;;
58643;SDS011;44411;49.994;8.660;2023-03-23T19:15:06;4.97;;;2.57;;
58643;SDS011;44411;49.994;8.660;2023-03-23T19:17:31;5.43;;;3.17;;
58643;SDS011;44411;49.994;8.660;2023-03-23T19:19:56;4.80;;;3.00;;
58643;SDS011;44411;49.994;8.660;2023-03-23T19:22:22;6.63;;;3.20;;
58643;SDS011;44411;49.994;8.660;2023-03-23T19:24:47;6.68;;;3.30;;
58643;SDS011;44411;49.994;8.660;2023-03-23T19:27:12;7.68;;;3.50;;
58643;SDS011;44411;49.994;8.660;2023-03-23T19:29:37;6.67;;;3.10;;
58643;SDS011;44411;49.994;8.660;2023-03-23T19:32:03;3.90;;;2.60;;
58643;SDS011;44411;49.994;8.660;2023-03-23T19:34:28;5.85;;;2.72;;
58643;SDS011;44411;49.994;8.660;2023-03-23T19:36:54;4.60;;;2.70;;
58643;SDS011;44411;49.994;8.660;2023-03-23T19:39:20;5.13;;;2.50;;
58643;SDS011;44411;49.994;8.660;2023-03-23T19:41:45;8.00;;;3.63;;
58643;SDS011;44411;49.994;8.660;2023-03-23T19:44:10;5.60;;;3.30;;
58643;SDS011;44411;49.994;8.660;2023-03-23T19:46:36;6.97;;;3.20;;
58643;SDS011;44411;49.994;8.660;2023-03-23T19:49:01;6.35;;;3.45;;
58643;SDS011;44411;49.994;8.660;2023-03-23T19:51:27;5.00;;;3.20;;
58643;SDS011;44411;49.994;8.660;2023-03-23T19:53:56;5.63;;;3.17;;
58643;SDS011;44411;49.994;8.660;2023-03-23T19:56:21;4.43;;;3.13;;
58643;SDS011;44411;49.994;8.660;2023-03-23T19:58:47;5.63;;;3.33;;
58643;SDS011;44411;49.994;8.660;2023-03-23T20:01:15;6.03;;;3.55;;
58643;SDS011;44411;49.994;8.660;2023-03-23T20:03:40;7.43;;;3.38;;
58643;SDS011;44411;49.994;8.660;2023-03-23T20:06:07;5.13;;;3.08;;
58643;SDS011;44411;49.994;8.660;2023-03-23T20:08:35;5.65;;;2.75;;
58643;SDS011;44411;49.994;8.660;2023-03-23T20:11:01;6.60;;;3.08;;